sensor_id;sensor_type;location;lat;lon;timestamp;P1;durP1;ratioP1;P2;durP2;ratioP2
77091;SDS011;66032;48.252;11.638;2023-04-20T00:00:51;17.77;;;9.93;;
77091;SDS011;66032;48.252;11.638;2023-04-20T00:03:18;14.65;;;8.50;;
77091;SDS011;66032;48.252;11.638;2023-04-20T00:05:47;16.65;;;10.10;;
77091;SDS011;66032;48.252;11.638;2023-04-20T00:08:17;20.48;;;11.25;;
77091;SDS011;66032;48.252;11.638;2023-04-20T00:10:45;15.95;;;9.52;;
77091;SDS011;66032;48.252;11.638;2023-04-20T00:13:12;18.30;;;11.65;;
77091;SDS011;66032;48.252;11.638;2023-04-20T00:15:40;20.73;;;11.07;;
77091;SDS011;66032;48.252;11.638;2023-04-20T00:18:07;17.52;;;10.45;;
77091;SDS011;66032;48.252;11.638;2023-04-20T00:20:34;18.08;;;10.15;;
77091;SDS011;66032;48.252;11.638;2023-04-20T00:23:02;15.68;;;8.18;;
77091;SDS011;66032;48.252;11.638;2023-04-20T00:25:29;16.23;;;8.63;;
77091;SDS011;66032;48.252;11.638;2023-04-20T00:27:57;14.45;;;8.50;;
77091;SDS011;66032;48.252;11.638;2023-04-20T00:30:25;16.10;;;8.35;;
77091;SDS011;66032;48.252;11.638;2023-04-20T00:32:52;16.35;;;9.18;;
77091;SDS011;66032;48.252;11.638;2023-04-20T00:35:19;20.42;;;11.40;;
77091;SDS011;66032;48.252;11.638;2023-04-20T00:37:47;15.57;;;9.02;;
77091;SDS011;66032;48.252;11.638;2023-04-20T00:40:14;22.23;;;11.95;;
77091;SDS011;66032;48.252;11.638;2023-04-20T00:42:41;19.50;;;10.65;;
77091;SDS011;66032;48.252;11.638;2023-04-20T00:45:09;23.17;;;11.68;;
77091;SDS011;66032;48.252;11.638;2023-04-20T00:47:37;21.25;;;11.77;;
77091;SDS011;66032;48.252;11.638;2023-04-20T00:50:04;19.85;;;11.00;;
77091;SDS011;66032;48.252;11.638;2023-04-20T00:52:33;19.35;;;10.63;;
77091;SDS011;66032;48.252;11.638;2023-04-20T00:55:01;20.30;;;10.95;;
77091;SDS011;66032;48.252;11.638;2023-04-20T00:57:31;19.00;;;11.55;;
77091;SDS011;66032;48.252;11.638;2023-04-20T00:59:59;18.17;;;11.18;;
77091;SDS011;66032;48.252;11.638;2023-04-20T01:02:27;17.00;;;9.90;;
77091;SDS011;66032;48.252;11.638;2023-04-20T01:04:55;18.58;;;10.18;;
77091;SDS011;66032;48.252;11.638;2023-04-20T01:07:22;16.30;;;9.82;;
77091;SDS011;66032;48.252;11.638;2023-04-20T01:09:49;17.95;;;9.98;;
77091;SDS011;66032;48.252;11.638;2023-04-20T01:12:17;17.30;;;9.82;;
77091;SDS011;66032;48.252;11.638;2023-04-20T01:14:44;18.40;;;9.88;;
77091;SDS011;66032;48.252;11.638;2023-04-20T01:17:11;19.95;;;10.07;;
77091;SDS011;66032;48.252;11.638;2023-04-20T01:22:20;17.65;;;9.35;;
77091;SDS011;66032;48.252;11.638;2023-04-20T01:24:47;19.30;;;10.57;;
77091;SDS011;66032;48.252;11.638;2023-04-20T01:27:14;19.08;;;10.52;;
77091;SDS011;66032;48.252;11.638;2023-04-20T01:29:43;18.20;;;10.07;;
77091;SDS011;66032;48.252;11.638;2023-04-20T01:32:11;16.05;;;9.52;;
77091;SDS011;66032;48.252;11.638;2023-04-20T01:34:39;18.50;;;10.02;;
77091;SDS011;66032;48.252;11.638;2023-04-20T01:37:07;20.30;;;11.10;;
77091;SDS011;66032;48.252;11.638;2023-04-20T01:39:35;14.73;;;9.13;;
77091;SDS011;66032;48.252;11.638;2023-04-20T01:42:05;13.65;;;8.10;;
77091;SDS011;66032;48.252;11.638;2023-04-20T01:44:33;15.27;;;8.98;;
77091;SDS011;66032;48.252;11.638;2023-04-20T01:47:01;17.10;;;10.05;;
77091;SDS011;66032;48.252;11.638;2023-04-20T01:49:28;19.15;;;10.07;;
77091;SDS011;66032;48.252;11.638;2023-04-20T01:51:56;16.17;;;9.32;;
77091;SDS011;66032;48.252;11.638;2023-04-20T01:54:23;15.90;;;9.05;;
77091;SDS011;66032;48.252;11.638;2023-04-20T01:56:50;16.88;;;10.02;;
77091;SDS011;66032;48.252;11.638;2023-04-20T01:59:18;14.73;;;9.27;;
77091;SDS011;66032;48.252;11.638;2023-04-20T02:01:45;17.98;;;11.02;;
77091;SDS011;66032;48.252;11.638;2023-04-20T02:04:13;18.55;;;10.68;;
77091;SDS011;66032;48.252;11.638;2023-04-20T02:06:40;19.33;;;10.07;;
77091;SDS011;66032;48.252;11.638;2023-04-20T02:09:08;16.55;;;10.85;;
77091;SDS011;66032;48.252;11.638;2023-04-20T02:11:35;20.35;;;12.02;;
77091;SDS011;66032;48.252;11.638;2023-04-20T02:14:04;17.38;;;10.57;;
77091;SDS011;66032;48.252;11.638;2023-04-20T02:16:32;20.15;;;11.70;;
77091;SDS011;66032;48.252;11.638;2023-04-20T02:19:01;19.50;;;11.25;;
77091;SDS011;66032;48.252;11.638;2023-04-20T02:21:28;17.98;;;10.50;;
77091;SDS011;66032;48.252;11.638;2023-04-20T02:23:56;20.88;;;11.68;;
77091;SDS011;66032;48.252;11.638;2023-04-20T02:26:25;16.85;;;9.88;;
77091;SDS011;66032;48.252;11.638;2023-04-20T02:28:53;17.75;;;10.18;;
77091;SDS011;66032;48.252;11.638;2023-04-20T02:31:20;21.42;;;11.43;;
77091;SDS011;66032;48.252;11.638;2023-04-20T02:33:48;18.08;;;10.45;;
77091;SDS011;66032;48.252;11.638;2023-04-20T02:36:17;20.38;;;10.82;;
77091;SDS011;66032;48.252;11.638;2023-04-20T02:38:45;17.85;;;10.27;;
77091;SDS011;66032;48.252;11.638;2023-04-20T02:41:12;17.23;;;10.38;;
77091;SDS011;66032;48.252;11.638;2023-04-20T02:43:40;15.05;;;8.85;;
77091;SDS011;66032;48.252;11.638;2023-04-20T02:46:09;18.67;;;10.75;;
77091;SDS011;66032;48.252;11.638;2023-04-20T02:48:36;18.27;;;10.25;;
77091;SDS011;66032;48.252;11.638;2023-04-20T02:51:04;20.45;;;11.20;;
77091;SDS011;66032;48.252;11.638;2023-04-20T02:53:37;18.98;;;10.57;;
77091;SDS011;66032;48.252;11.638;2023-04-20T02:56:14;18.58;;;10.90;;
77091;SDS011;66032;48.252;11.638;2023-04-20T02:58:44;18.33;;;10.55;;
77091;SDS011;66032;48.252;11.638;2023-04-20T03:01:19;18.65;;;11.25;;
77091;SDS011;66032;48.252;11.638;2023-04-20T03:03:49;21.58;;;12.57;;
77091;SDS011;66032;48.252;11.638;2023-04-20T03:06:17;19.83;;;11.18;;
77091;SDS011;66032;48.252;11.638;2023-04-20T03:08:51;19.83;;;12.10;;
77091;SDS011;66032;48.252;11.638;2023-04-20T03:11:41;21.05;;;10.95;;
77091;SDS011;66032;48.252;11.638;2023-04-20T03:14:12;16.83;;;9.98;;
77091;SDS011;66032;48.252;11.638;2023-04-20T03:16:39;21.33;;;11.25;;
77091;SDS011;66032;48.252;11.638;2023-04-20T03:19:09;22.90;;;12.18;;
77091;SDS011;66032;48.252;11.638;2023-04-20T03:21:36;21.38;;;12.77;;
77091;SDS011;66032;48.252;11.638;2023-04-20T03:24:03;24.70;;;12.98;;
77091;SDS011;66032;48.252;11.638;2023-04-20T03:26:33;20.63;;;11.25;;
77091;SDS011;66032;48.252;11.638;2023-04-20T03:29:15;24.08;;;12.38;;
77091;SDS011;66032;48.252;11.638;2023-04-20T03:31:43;22.27;;;12.52;;
77091;SDS011;66032;48.252;11.638;2023-04-20T03:34:13;19.70;;;11.27;;
77091;SDS011;66032;48.252;11.638;2023-04-20T03:36:40;18.63;;;10.38;;
77091;SDS011;66032;48.252;11.638;2023-04-20T03:39:08;17.33;;;10.20;;
77091;SDS011;66032;48.252;11.638;2023-04-20T03:41:35;18.30;;;9.57;;
77091;SDS011;66032;48.252;11.638;2023-04-20T03:44:02;15.35;;;9.02;;
77091;SDS011;66032;48.252;11.638;2023-04-20T03:46:30;14.75;;;8.70;;
77091;SDS011;66032;48.252;11.638;2023-04-20T03:48:57;16.33;;;9.52;;
77091;SDS011;66032;48.252;11.638;2023-04-20T03:51:25;14.85;;;8.52;;
77091;SDS011;66032;48.252;11.638;2023-04-20T03:53:52;13.10;;;8.10;;
77091;SDS011;66032;48.252;11.638;2023-04-20T03:56:19;12.48;;;7.32;;
77091;SDS011;66032;48.252;11.638;2023-04-20T03:58:48;13.80;;;7.57;;
77091;SDS011;66032;48.252;11.638;2023-04-20T04:01:20;13.23;;;7.47;;
77091;SDS011;66032;48.252;11.638;2023-04-20T04:03:48;13.65;;;8.25;;
77091;SDS011;66032;48.252;11.638;2023-04-20T04:06:16;12.40;;;6.88;;
77091;SDS011;66032;48.252;11.638;2023-04-20T04:08:44;12.55;;;7.25;;
77091;SDS011;66032;48.252;11.638;2023-04-20T04:11:11;12.50;;;7.22;;
77091;SDS011;66032;48.252;11.638;2023-04-20T04:13:39;14.65;;;7.97;;
77091;SDS011;66032;48.252;11.638;2023-04-20T04:16:07;12.32;;;7.55;;
77091;SDS011;66032;48.252;11.638;2023-04-20T04:18:35;12.27;;;6.90;;
77091;SDS011;66032;48.252;11.638;2023-04-20T04:21:08;12.63;;;7.35;;
77091;SDS011;66032;48.252;11.638;2023-04-20T04:23:39;10.65;;;6.63;;
77091;SDS011;66032;48.252;11.638;2023-04-20T04:26:16;12.00;;;7.03;;
77091;SDS011;66032;48.252;11.638;2023-04-20T04:28:44;11.82;;;7.28;;
77091;SDS011;66032;48.252;11.638;2023-04-20T04:31:15;11.18;;;6.55;;
77091;SDS011;66032;48.252;11.638;2023-04-20T04:33:44;12.95;;;7.72;;
77091;SDS011;66032;48.252;11.638;2023-04-20T04:36:22;12.18;;;7.07;;
77091;SDS011;66032;48.252;11.638;2023-04-20T04:38:55;12.10;;;6.78;;
77091;SDS011;66032;48.252;11.638;2023-04-20T04:41:23;12.82;;;7.68;;
77091;SDS011;66032;48.252;11.638;2023-04-20T04:43:54;10.93;;;7.03;;
77091;SDS011;66032;48.252;11.638;2023-04-20T04:46:28;12.30;;;6.72;;
77091;SDS011;66032;48.252;11.638;2023-04-20T04:48:56;10.73;;;6.45;;
77091;SDS011;66032;48.252;11.638;2023-04-20T04:51:26;10.88;;;6.70;;
77091;SDS011;66032;48.252;11.638;2023-04-20T04:53:54;11.05;;;7.00;;
77091;SDS011;66032;48.252;11.638;2023-04-20T04:56:21;12.05;;;6.90;;
77091;SDS011;66032;48.252;11.638;2023-04-20T04:58:49;10.38;;;6.32;;
77091;SDS011;66032;48.252;11.638;2023-04-20T05:01:16;10.75;;;6.38;;
77091;SDS011;66032;48.252;11.638;2023-04-20T05:03:44;12.10;;;7.13;;
77091;SDS011;66032;48.252;11.638;2023-04-20T05:06:11;12.70;;;6.88;;
77091;SDS011;66032;48.252;11.638;2023-04-20T05:08:39;12.00;;;6.20;;
77091;SDS011;66032;48.252;11.638;2023-04-20T05:11:06;9.80;;;6.25;;
77091;SDS011;66032;48.252;11.638;2023-04-20T05:13:33;11.32;;;7.00;;
77091;SDS011;66032;48.252;11.638;2023-04-20T05:16:01;10.85;;;6.43;;
77091;SDS011;66032;48.252;11.638;2023-04-20T05:18:29;10.63;;;6.82;;
77091;SDS011;66032;48.252;11.638;2023-04-20T05:20:56;11.30;;;6.47;;
77091;SDS011;66032;48.252;11.638;2023-04-20T05:23:23;10.68;;;7.03;;
77091;SDS011;66032;48.252;11.638;2023-04-20T05:25:50;9.82;;;5.95;;
77091;SDS011;66032;48.252;11.638;2023-04-20T05:28:21;11.95;;;7.20;;
77091;SDS011;66032;48.252;11.638;2023-04-20T05:30:49;10.75;;;6.50;;
77091;SDS011;66032;48.252;11.638;2023-04-20T05:33:16;11.55;;;6.70;;
77091;SDS011;66032;48.252;11.638;2023-04-20T05:35:43;14.00;;;7.65;;
77091;SDS011;66032;48.252;11.638;2023-04-20T05:38:11;12.50;;;7.20;;
77091;SDS011;66032;48.252;11.638;2023-04-20T05:40:39;14.10;;;8.15;;
77091;SDS011;66032;48.252;11.638;2023-04-20T05:43:06;12.18;;;7.20;;
77091;SDS011;66032;48.252;11.638;2023-04-20T05:45:33;12.98;;;7.57;;
77091;SDS011;66032;48.252;11.638;2023-04-20T05:48:01;14.65;;;8.40;;
77091;SDS011;66032;48.252;11.638;2023-04-20T05:50:28;12.40;;;7.82;;
77091;SDS011;66032;48.252;11.638;2023-04-20T05:52:56;13.32;;;7.72;;
77091;SDS011;66032;48.252;11.638;2023-04-20T05:55:23;13.90;;;9.30;;
77091;SDS011;66032;48.252;11.638;2023-04-20T05:57:51;12.75;;;7.22;;
77091;SDS011;66032;48.252;11.638;2023-04-20T06:00:19;13.73;;;7.82;;
77091;SDS011;66032;48.252;11.638;2023-04-20T06:02:49;13.65;;;8.13;;
77091;SDS011;66032;48.252;11.638;2023-04-20T06:05:17;14.48;;;7.72;;
77091;SDS011;66032;48.252;11.638;2023-04-20T06:07:48;12.82;;;7.35;;
77091;SDS011;66032;48.252;11.638;2023-04-20T06:10:16;13.20;;;7.20;;
77091;SDS011;66032;48.252;11.638;2023-04-20T06:12:43;15.70;;;9.10;;
77091;SDS011;66032;48.252;11.638;2023-04-20T06:15:10;11.40;;;7.00;;
77091;SDS011;66032;48.252;11.638;2023-04-20T06:17:38;13.52;;;7.53;;
77091;SDS011;66032;48.252;11.638;2023-04-20T06:20:07;12.80;;;7.57;;
77091;SDS011;66032;48.252;11.638;2023-04-20T06:22:36;11.52;;;7.05;;
77091;SDS011;66032;48.252;11.638;2023-04-20T06:25:11;11.88;;;7.45;;
77091;SDS011;66032;48.252;11.638;2023-04-20T06:27:40;12.38;;;7.22;;
77091;SDS011;66032;48.252;11.638;2023-04-20T06:30:07;10.93;;;7.05;;
77091;SDS011;66032;48.252;11.638;2023-04-20T06:32:35;10.75;;;6.82;;
77091;SDS011;66032;48.252;11.638;2023-04-20T06:35:04;11.57;;;7.18;;
77091;SDS011;66032;48.252;11.638;2023-04-20T06:37:33;11.30;;;6.65;;
77091;SDS011;66032;48.252;11.638;2023-04-20T06:40:02;10.65;;;6.80;;
77091;SDS011;66032;48.252;11.638;2023-04-20T06:42:34;11.00;;;7.05;;
77091;SDS011;66032;48.252;11.638;2023-04-20T06:45:04;11.38;;;7.85;;
77091;SDS011;66032;48.252;11.638;2023-04-20T06:47:32;9.73;;;6.25;;
77091;SDS011;66032;48.252;11.638;2023-04-20T06:50:00;8.52;;;5.90;;
77091;SDS011;66032;48.252;11.638;2023-04-20T06:52:28;11.23;;;6.80;;
77091;SDS011;66032;48.252;11.638;2023-04-20T06:54:57;8.73;;;5.68;;
77091;SDS011;66032;48.252;11.638;2023-04-20T06:57:28;8.68;;;5.90;;
77091;SDS011;66032;48.252;11.638;2023-04-20T06:59:55;8.98;;;6.07;;
77091;SDS011;66032;48.252;11.638;2023-04-20T07:02:25;10.27;;;6.07;;
77091;SDS011;66032;48.252;11.638;2023-04-20T07:04:52;8.20;;;5.72;;
77091;SDS011;66032;48.252;11.638;2023-04-20T07:07:26;11.07;;;6.68;;
77091;SDS011;66032;48.252;11.638;2023-04-20T07:09:54;10.05;;;6.97;;
77091;SDS011;66032;48.252;11.638;2023-04-20T07:12:21;9.30;;;6.57;;
77091;SDS011;66032;48.252;11.638;2023-04-20T07:14:49;10.05;;;6.63;;
77091;SDS011;66032;48.252;11.638;2023-04-20T07:17:16;8.57;;;6.00;;
77091;SDS011;66032;48.252;11.638;2023-04-20T07:19:43;11.15;;;6.82;;
77091;SDS011;66032;48.252;11.638;2023-04-20T07:22:11;12.48;;;6.80;;
77091;SDS011;66032;48.252;11.638;2023-04-20T07:24:38;12.20;;;8.15;;
77091;SDS011;66032;48.252;11.638;2023-04-20T07:27:05;9.48;;;6.03;;
77091;SDS011;66032;48.252;11.638;2023-04-20T07:29:34;10.45;;;6.88;;
77091;SDS011;66032;48.252;11.638;2023-04-20T07:32:01;10.40;;;7.40;;
77091;SDS011;66032;48.252;11.638;2023-04-20T07:34:29;10.48;;;6.78;;
77091;SDS011;66032;48.252;11.638;2023-04-20T07:36:57;12.25;;;6.97;;
77091;SDS011;66032;48.252;11.638;2023-04-20T07:39:24;10.13;;;6.47;;
77091;SDS011;66032;48.252;11.638;2023-04-20T07:41:54;9.55;;;6.32;;
77091;SDS011;66032;48.252;11.638;2023-04-20T07:44:22;9.70;;;5.35;;
77091;SDS011;66032;48.252;11.638;2023-04-20T07:46:50;10.85;;;6.20;;
77091;SDS011;66032;48.252;11.638;2023-04-20T07:49:17;7.78;;;5.07;;
77091;SDS011;66032;48.252;11.638;2023-04-20T07:51:45;8.73;;;5.75;;
77091;SDS011;66032;48.252;11.638;2023-04-20T07:54:12;8.55;;;5.78;;
77091;SDS011;66032;48.252;11.638;2023-04-20T07:56:39;8.57;;;5.50;;
77091;SDS011;66032;48.252;11.638;2023-04-20T07:59:07;8.50;;;5.97;;
77091;SDS011;66032;48.252;11.638;2023-04-20T08:01:34;8.90;;;5.07;;
77091;SDS011;66032;48.252;11.638;2023-04-20T08:04:02;10.52;;;6.20;;
77091;SDS011;66032;48.252;11.638;2023-04-20T08:06:30;9.07;;;6.00;;
77091;SDS011;66032;48.252;11.638;2023-04-20T08:08:58;7.03;;;5.07;;
77091;SDS011;66032;48.252;11.638;2023-04-20T08:11:26;9.60;;;6.22;;
77091;SDS011;66032;48.252;11.638;2023-04-20T08:13:53;9.20;;;5.13;;
77091;SDS011;66032;48.252;11.638;2023-04-20T08:16:23;8.35;;;5.22;;
77091;SDS011;66032;48.252;11.638;2023-04-20T08:18:51;9.77;;;5.50;;
77091;SDS011;66032;48.252;11.638;2023-04-20T08:21:18;8.05;;;5.18;;
77091;SDS011;66032;48.252;11.638;2023-04-20T08:23:51;7.10;;;4.93;;
77091;SDS011;66032;48.252;11.638;2023-04-20T08:26:19;9.43;;;5.93;;
77091;SDS011;66032;48.252;11.638;2023-04-20T08:28:46;8.63;;;6.03;;
77091;SDS011;66032;48.252;11.638;2023-04-20T08:31:13;7.55;;;5.18;;
77091;SDS011;66032;48.252;11.638;2023-04-20T08:33:41;9.13;;;6.07;;
77091;SDS011;66032;48.252;11.638;2023-04-20T08:36:08;9.85;;;6.68;;
77091;SDS011;66032;48.252;11.638;2023-04-20T08:38:36;9.82;;;6.20;;
77091;SDS011;66032;48.252;11.638;2023-04-20T08:41:03;10.00;;;6.78;;
77091;SDS011;66032;48.252;11.638;2023-04-20T08:43:31;8.85;;;5.85;;
77091;SDS011;66032;48.252;11.638;2023-04-20T08:45:58;8.98;;;5.85;;
77091;SDS011;66032;48.252;11.638;2023-04-20T08:48:31;7.88;;;5.70;;
77091;SDS011;66032;48.252;11.638;2023-04-20T08:51:02;9.40;;;6.43;;
77091;SDS011;66032;48.252;11.638;2023-04-20T08:53:31;8.55;;;6.10;;
77091;SDS011;66032;48.252;11.638;2023-04-20T08:55:59;8.88;;;5.82;;
77091;SDS011;66032;48.252;11.638;2023-04-20T08:58:30;9.30;;;5.95;;
77091;SDS011;66032;48.252;11.638;2023-04-20T09:00:58;7.75;;;5.05;;
77091;SDS011;66032;48.252;11.638;2023-04-20T09:03:31;8.68;;;5.68;;
77091;SDS011;66032;48.252;11.638;2023-04-20T09:06:02;7.28;;;5.38;;
77091;SDS011;66032;48.252;11.638;2023-04-20T09:08:40;7.53;;;5.28;;
77091;SDS011;66032;48.252;11.638;2023-04-20T09:11:24;8.15;;;5.50;;
77091;SDS011;66032;48.252;11.638;2023-04-20T09:14:00;9.18;;;5.45;;
77091;SDS011;66032;48.252;11.638;2023-04-20T09:16:34;8.50;;;6.10;;
77091;SDS011;66032;48.252;11.638;2023-04-20T09:19:02;9.05;;;6.30;;
77091;SDS011;66032;48.252;11.638;2023-04-20T09:21:30;8.02;;;5.55;;
77091;SDS011;66032;48.252;11.638;2023-04-20T09:24:03;8.48;;;5.65;;
77091;SDS011;66032;48.252;11.638;2023-04-20T09:26:34;9.10;;;5.90;;
77091;SDS011;66032;48.252;11.638;2023-04-20T09:29:02;8.98;;;6.13;;
77091;SDS011;66032;48.252;11.638;2023-04-20T09:31:30;9.75;;;5.80;;
77091;SDS011;66032;48.252;11.638;2023-04-20T09:33:58;8.73;;;5.85;;
77091;SDS011;66032;48.252;11.638;2023-04-20T09:36:36;8.23;;;5.65;;
77091;SDS011;66032;48.252;11.638;2023-04-20T09:39:17;8.15;;;6.00;;
77091;SDS011;66032;48.252;11.638;2023-04-20T09:41:45;7.95;;;5.15;;
77091;SDS011;66032;48.252;11.638;2023-04-20T09:44:14;9.95;;;6.18;;
77091;SDS011;66032;48.252;11.638;2023-04-20T09:46:43;9.90;;;5.93;;
77091;SDS011;66032;48.252;11.638;2023-04-20T09:49:11;8.38;;;5.55;;
77091;SDS011;66032;48.252;11.638;2023-04-20T09:51:43;8.05;;;5.60;;
77091;SDS011;66032;48.252;11.638;2023-04-20T09:54:11;8.15;;;5.32;;
77091;SDS011;66032;48.252;11.638;2023-04-20T09:56:39;8.68;;;5.63;;
77091;SDS011;66032;48.252;11.638;2023-04-20T09:59:07;8.93;;;5.72;;
77091;SDS011;66032;48.252;11.638;2023-04-20T10:01:35;8.02;;;5.32;;
77091;SDS011;66032;48.252;11.638;2023-04-20T10:04:07;8.00;;;4.82;;
77091;SDS011;66032;48.252;11.638;2023-04-20T10:06:37;8.10;;;5.30;;
77091;SDS011;66032;48.252;11.638;2023-04-20T10:09:07;8.57;;;5.90;;
77091;SDS011;66032;48.252;11.638;2023-04-20T10:11:38;8.48;;;5.80;;
77091;SDS011;66032;48.252;11.638;2023-04-20T10:14:21;8.68;;;5.00;;
77091;SDS011;66032;48.252;11.638;2023-04-20T10:22:23;7.85;;;5.65;;
77091;SDS011;66032;48.252;11.638;2023-04-20T10:24:59;8.38;;;5.57;;
77091;SDS011;66032;48.252;11.638;2023-04-20T10:27:28;8.88;;;6.28;;
77091;SDS011;66032;48.252;11.638;2023-04-20T10:30:07;6.85;;;5.30;;
77091;SDS011;66032;48.252;11.638;2023-04-20T10:32:36;8.07;;;5.45;;
77091;SDS011;66032;48.252;11.638;2023-04-20T10:35:07;8.18;;;4.70;;
77091;SDS011;66032;48.252;11.638;2023-04-20T10:37:46;7.00;;;4.97;;
77091;SDS011;66032;48.252;11.638;2023-04-20T10:40:14;7.18;;;5.18;;
77091;SDS011;66032;48.252;11.638;2023-04-20T10:42:42;7.03;;;5.22;;
77091;SDS011;66032;48.252;11.638;2023-04-20T10:45:11;8.23;;;5.43;;
77091;SDS011;66032;48.252;11.638;2023-04-20T10:47:38;7.75;;;5.28;;
77091;SDS011;66032;48.252;11.638;2023-04-20T10:50:14;6.93;;;4.38;;
77091;SDS011;66032;48.252;11.638;2023-04-20T10:52:43;8.20;;;5.57;;
77091;SDS011;66032;48.252;11.638;2023-04-20T10:55:23;7.20;;;5.15;;
77091;SDS011;66032;48.252;11.638;2023-04-20T10:57:52;7.15;;;5.18;;
77091;SDS011;66032;48.252;11.638;2023-04-20T11:00:20;8.10;;;5.57;;
77091;SDS011;66032;48.252;11.638;2023-04-20T11:02:50;7.28;;;4.88;;
77091;SDS011;66032;48.252;11.638;2023-04-20T11:05:19;7.50;;;5.07;;
77091;SDS011;66032;48.252;11.638;2023-04-20T11:07:55;7.30;;;5.53;;
77091;SDS011;66032;48.252;11.638;2023-04-20T11:10:36;6.88;;;5.07;;
77091;SDS011;66032;48.252;11.638;2023-04-20T11:13:04;7.47;;;5.13;;
77091;SDS011;66032;48.252;11.638;2023-04-20T11:15:32;9.07;;;5.70;;
77091;SDS011;66032;48.252;11.638;2023-04-20T11:18:08;6.80;;;4.80;;
77091;SDS011;66032;48.252;11.638;2023-04-20T11:20:48;7.22;;;4.78;;
77091;SDS011;66032;48.252;11.638;2023-04-20T11:23:19;7.95;;;5.90;;
77091;SDS011;66032;48.252;11.638;2023-04-20T11:25:54;7.70;;;5.65;;
77091;SDS011;66032;48.252;11.638;2023-04-20T11:28:22;9.85;;;5.40;;
77091;SDS011;66032;48.252;11.638;2023-04-20T11:30:51;7.50;;;5.60;;
77091;SDS011;66032;48.252;11.638;2023-04-20T11:33:28;7.72;;;5.60;;
77091;SDS011;66032;48.252;11.638;2023-04-20T11:35:57;6.95;;;4.88;;
77091;SDS011;66032;48.252;11.638;2023-04-20T11:38:28;7.10;;;5.15;;
77091;SDS011;66032;48.252;11.638;2023-04-20T11:40:57;8.57;;;5.80;;
77091;SDS011;66032;48.252;11.638;2023-04-20T11:43:30;6.82;;;5.13;;
77091;SDS011;66032;48.252;11.638;2023-04-20T11:45:58;7.82;;;5.60;;
77091;SDS011;66032;48.252;11.638;2023-04-20T11:48:29;6.65;;;4.85;;
77091;SDS011;66032;48.252;11.638;2023-04-20T11:50:57;8.32;;;5.72;;
77091;SDS011;66032;48.252;11.638;2023-04-20T11:53:24;7.00;;;5.28;;
77091;SDS011;66032;48.252;11.638;2023-04-20T11:55:52;6.53;;;4.63;;
77091;SDS011;66032;48.252;11.638;2023-04-20T11:58:19;6.38;;;4.78;;
77091;SDS011;66032;48.252;11.638;2023-04-20T12:00:47;6.97;;;4.57;;
77091;SDS011;66032;48.252;11.638;2023-04-20T12:03:14;8.30;;;5.70;;
77091;SDS011;66032;48.252;11.638;2023-04-20T12:05:41;7.53;;;5.10;;
77091;SDS011;66032;48.252;11.638;2023-04-20T12:08:09;8.02;;;6.07;;
77091;SDS011;66032;48.252;11.638;2023-04-20T12:10:36;7.38;;;5.22;;
77091;SDS011;66032;48.252;11.638;2023-04-20T12:13:03;6.93;;;5.68;;
77091;SDS011;66032;48.252;11.638;2023-04-20T12:15:30;9.38;;;6.07;;
77091;SDS011;66032;48.252;11.638;2023-04-20T12:17:58;8.80;;;6.07;;
77091;SDS011;66032;48.252;11.638;2023-04-20T12:20:25;8.57;;;5.70;;
77091;SDS011;66032;48.252;11.638;2023-04-20T12:22:52;9.77;;;6.43;;
77091;SDS011;66032;48.252;11.638;2023-04-20T12:25:22;9.00;;;6.07;;
77091;SDS011;66032;48.252;11.638;2023-04-20T12:27:49;10.07;;;6.70;;
77091;SDS011;66032;48.252;11.638;2023-04-20T12:30:17;9.85;;;6.90;;
77091;SDS011;66032;48.252;11.638;2023-04-20T12:32:44;10.10;;;6.95;;
77091;SDS011;66032;48.252;11.638;2023-04-20T12:35:11;9.43;;;6.68;;
77091;SDS011;66032;48.252;11.638;2023-04-20T12:37:38;10.65;;;6.55;;
77091;SDS011;66032;48.252;11.638;2023-04-20T12:40:06;11.13;;;8.10;;
77091;SDS011;66032;48.252;11.638;2023-04-20T12:42:34;12.02;;;7.53;;
77091;SDS011;66032;48.252;11.638;2023-04-20T12:45:01;10.48;;;6.88;;
77091;SDS011;66032;48.252;11.638;2023-04-20T12:47:29;10.93;;;6.90;;
77091;SDS011;66032;48.252;11.638;2023-04-20T12:49:57;14.38;;;8.60;;
77091;SDS011;66032;48.252;11.638;2023-04-20T12:52:24;14.80;;;10.85;;
77091;SDS011;66032;48.252;11.638;2023-04-20T12:54:51;12.93;;;7.75;;
77091;SDS011;66032;48.252;11.638;2023-04-20T12:57:18;13.68;;;8.60;;
77091;SDS011;66032;48.252;11.638;2023-04-20T12:59:46;13.95;;;9.25;;
77091;SDS011;66032;48.252;11.638;2023-04-20T13:02:16;15.80;;;10.50;;
77091;SDS011;66032;48.252;11.638;2023-04-20T13:04:44;16.35;;;9.98;;
77091;SDS011;66032;48.252;11.638;2023-04-20T13:07:12;15.85;;;9.73;;
77091;SDS011;66032;48.252;11.638;2023-04-20T13:09:39;16.40;;;10.75;;
77091;SDS011;66032;48.252;11.638;2023-04-20T13:12:06;14.07;;;8.38;;
77091;SDS011;66032;48.252;11.638;2023-04-20T13:14:34;17.70;;;9.02;;
77091;SDS011;66032;48.252;11.638;2023-04-20T13:17:01;15.43;;;10.40;;
77091;SDS011;66032;48.252;11.638;2023-04-20T13:19:29;16.05;;;10.13;;
77091;SDS011;66032;48.252;11.638;2023-04-20T13:21:56;14.40;;;9.25;;
77091;SDS011;66032;48.252;11.638;2023-04-20T13:24:24;13.20;;;8.15;;
77091;SDS011;66032;48.252;11.638;2023-04-20T13:26:52;15.90;;;9.32;;
77091;SDS011;66032;48.252;11.638;2023-04-20T14:13:23;14.60;;;9.18;;
77091;SDS011;66032;48.252;11.638;2023-04-20T14:15:52;13.60;;;8.20;;
77091;SDS011;66032;48.252;11.638;2023-04-20T14:18:20;13.52;;;8.07;;
77091;SDS011;66032;48.252;11.638;2023-04-20T14:20:47;14.50;;;9.05;;
77091;SDS011;66032;48.252;11.638;2023-04-20T14:23:18;14.32;;;9.63;;
77091;SDS011;66032;48.252;11.638;2023-04-20T14:25:45;14.27;;;8.68;;
77091;SDS011;66032;48.252;11.638;2023-04-20T14:28:13;15.43;;;9.52;;
77091;SDS011;66032;48.252;11.638;2023-04-20T14:30:43;15.05;;;9.57;;
77091;SDS011;66032;48.252;11.638;2023-04-20T14:33:11;13.73;;;9.13;;
77091;SDS011;66032;48.252;11.638;2023-04-20T14:35:38;14.32;;;8.93;;
77091;SDS011;66032;48.252;11.638;2023-04-20T14:38:06;11.95;;;7.90;;
77091;SDS011;66032;48.252;11.638;2023-04-20T14:40:33;14.32;;;9.02;;
77091;SDS011;66032;48.252;11.638;2023-04-20T14:43:01;13.95;;;8.95;;
77091;SDS011;66032;48.252;11.638;2023-04-20T14:45:28;14.05;;;8.75;;
77091;SDS011;66032;48.252;11.638;2023-04-20T14:47:55;13.85;;;9.07;;
77091;SDS011;66032;48.252;11.638;2023-04-20T14:50:23;14.77;;;8.63;;
77091;SDS011;66032;48.252;11.638;2023-04-20T14:52:54;13.48;;;8.43;;
77091;SDS011;66032;48.252;11.638;2023-04-20T14:55:21;14.73;;;8.65;;
77091;SDS011;66032;48.252;11.638;2023-04-20T14:57:53;13.45;;;8.27;;
77091;SDS011;66032;48.252;11.638;2023-04-20T15:00:22;12.80;;;8.45;;
77091;SDS011;66032;48.252;11.638;2023-04-20T15:02:51;13.48;;;9.05;;
77091;SDS011;66032;48.252;11.638;2023-04-20T15:05:19;14.13;;;9.05;;
77091;SDS011;66032;48.252;11.638;2023-04-20T15:07:46;12.80;;;9.05;;
77091;SDS011;66032;48.252;11.638;2023-04-20T15:10:17;13.65;;;8.90;;
77091;SDS011;66032;48.252;11.638;2023-04-20T15:12:46;11.90;;;7.68;;
77091;SDS011;66032;48.252;11.638;2023-04-20T15:15:14;14.07;;;8.93;;
77091;SDS011;66032;48.252;11.638;2023-04-20T15:17:43;12.52;;;8.32;;
77091;SDS011;66032;48.252;11.638;2023-04-20T15:20:11;12.77;;;8.55;;
77091;SDS011;66032;48.252;11.638;2023-04-20T15:22:41;13.45;;;9.63;;
77091;SDS011;66032;48.252;11.638;2023-04-20T15:25:08;13.15;;;8.35;;